Time;durP1;ratioP1;P1;durP2;ratioP2;P2;SDS_P1;SDS_P2;PMS_P1;PMS_P2;Temp;Humidity;BMP_temperature;BMP_pressure;BME280_temperature;BME280_humidity;BME280_pressure;Samples;Min_cycle;Max_cycle;Signal;HPM_P1;HPM_P2
2023/01/25 00:02:23;;;;;;;78.00;57.83;;;;;;;0.06;98.68;103564.91;5245406;28;20025;-70
2023/01/25 00:04:54;;;;;;;75.37;58.33;;;;;;;0.03;99.01;103563.81;5245244;28;20489;-70
2023/01/25 00:07:25;;;;;;;80.83;61.27;;;;;;;0.08;98.94;103565.03;5244383;28;20036;-70
2023/01/25 00:09:57;;;;;;;81.73;61.50;;;;;;;-0.02;97.97;103561.81;5245870;28;20041;-70
2023/01/25 00:12:28;;;;;;;87.73;63.27;;;;;;;0.02;97.93;103556.88;5245764;28;20417;-70
2023/01/25 00:14:59;;;;;;;79.43;59.00;;;;;;;0.05;97.70;103557.13;5245494;28;20491;-70
2023/01/25 00:17:31;;;;;;;78.47;58.77;;;;;;;0.01;97.75;103550.88;5244392;28;20033;-71
2023/01/25 00:20:02;;;;;;;81.20;61.23;;;;;;;0.05;97.88;103563.16;5244116;28;20048;-70
2023/01/25 00:22:34;;;;;;;75.23;58.07;;;;;;;0.07;98.81;103555.59;5244935;28;20033;-70
2023/01/25 00:25:05;;;;;;;76.03;58.37;;;;;;;0.01;98.48;103557.69;5245224;28;20362;-70
2023/01/25 00:27:37;;;;;;;75.93;57.23;;;;;;;-0.07;98.27;103552.84;5245825;28;20037;-70
2023/01/25 00:30:09;;;;;;;80.50;59.63;;;;;;;-0.02;98.53;103559.25;5244020;28;20491;-70
2023/01/25 00:32:50;;;;;;;75.93;57.33;;;;;;;-0.02;99.02;103559.25;5244479;28;20033;-70
2023/01/25 00:35:21;;;;;;;76.15;58.55;;;;;;;0.04;98.80;103557.91;5245117;28;20029;-70
2023/01/25 00:37:53;;;;;;;85.03;62.47;;;;;;;-0.06;98.33;103557.22;5245266;28;20029;-70
2023/01/25 00:40:25;;;;;;;82.95;60.53;;;;;;;-0.06;98.95;103541.81;5244677;28;20132;-70
2023/01/25 00:42:59;;;;;;;83.77;63.90;;;;;;;-0.05;98.66;103545.28;5245356;28;20052;-70
2023/01/25 00:45:30;;;;;;;81.80;62.00;;;;;;;-0.11;98.49;103549.94;5244790;28;20082;-70
2023/01/25 00:48:02;;;;;;;83.43;59.93;;;;;;;-0.07;98.95;103542.59;5244869;28;20103;-70
2023/01/25 00:50:36;;;;;;;84.93;63.17;;;;;;;-0.14;99.29;103548.06;5244690;28;20042;-70
2023/01/25 00:53:07;;;;;;;82.75;62.70;;;;;;;-0.26;98.54;103544.53;5244690;28;20127;-70
2023/01/25 00:55:38;;;;;;;86.73;63.57;;;;;;;-0.17;98.98;103549.50;5242001;28;20057;-70
2023/01/25 00:58:10;;;;;;;81.73;60.93;;;;;;;-0.15;99.71;103541.13;5243485;28;20030;-70
2023/01/25 01:00:41;;;;;;;86.17;64.30;;;;;;;-0.10;100.00;103547.50;5244610;28;20029;-70
2023/01/25 01:03:12;;;;;;;87.90;63.23;;;;;;;-0.12;99.59;103543.91;5244490;28;20484;-70
2023/01/25 01:05:44;;;;;;;85.00;64.17;;;;;;;-0.08;99.88;103539.91;5244523;28;20034;-70
2023/01/25 01:08:15;;;;;;;87.30;64.23;;;;;;;-0.05;99.51;103535.94;5244438;28;20029;-70
2023/01/25 01:10:46;;;;;;;82.73;61.77;;;;;;;-0.11;99.09;103531.97;5244008;28;20032;-70
2023/01/25 01:13:18;;;;;;;81.57;62.93;;;;;;;-0.12;98.60;103532.78;5244261;28;20037;-70
2023/01/25 01:15:49;;;;;;;83.33;62.23;;;;;;;-0.14;98.87;103526.66;5244254;28;20479;-70
2023/01/25 01:18:21;;;;;;;84.03;62.40;;;;;;;-0.09;99.26;103533.91;5244271;28;20030;-70
2023/01/25 01:20:52;;;;;;;87.07;62.23;;;;;;;-0.06;99.42;103538.38;5244456;28;20041;-70
2023/01/25 01:23:24;;;;;;;87.77;63.00;;;;;;;-0.03;99.96;103533.47;5243779;28;20032;-70
2023/01/25 01:25:59;;;;;;;84.43;63.47;;;;;;;-0.12;99.58;103528.53;5244003;28;20063;-70
2023/01/25 01:28:32;;;;;;;83.68;61.60;;;;;;;-0.14;99.43;103531.78;5243980;28;20218;-70
2023/01/25 01:31:06;;;;;;;83.28;62.88;;;;;;;-0.10;99.54;103534.66;5244681;28;20046;-70
2023/01/25 01:33:37;;;;;;;86.15;64.65;;;;;;;-0.08;99.92;103530.56;5243943;28;20123;-70
2023/01/25 01:36:12;;;;;;;89.03;64.47;;;;;;;-0.20;99.23;103529.63;5242951;28;20108;-70
2023/01/25 01:38:43;;;;;;;89.07;64.90;;;;;;;-0.18;99.85;103530.63;5243760;28;20075;-70
2023/01/25 01:41:15;;;;;;;85.63;62.73;;;;;;;-0.14;100.00;103530.09;5243578;28;20057;-71
2023/01/25 01:43:47;;;;;;;87.53;64.18;;;;;;;-0.18;100.00;103528.06;5244250;28;20037;-71
2023/01/25 01:46:34;;;;;;;88.13;65.13;;;;;;;-0.14;99.96;103526.66;5243728;28;20029;-71
2023/01/25 01:49:26;;;;;;;85.38;65.18;;;;;;;-0.13;100.00;103531.91;5243739;28;20108;-71
2023/01/25 01:52:02;;;;;;;87.75;65.47;;;;;;;-0.20;99.68;103533.09;5243964;28;20464;-71
2023/01/25 01:54:37;;;;;;;91.03;65.30;;;;;;;-0.17;100.00;103532.44;5243497;28;20381;-71
2023/01/25 01:57:24;;;;;;;90.18;65.82;;;;;;;-0.19;99.91;103528.88;5243519;28;20026;-71
2023/01/25 02:00:06;;;;;;;88.65;64.97;;;;;;;-0.12;100.00;103535.34;5243945;28;20080;-71
2023/01/25 02:02:37;;;;;;;92.97;66.95;;;;;;;-0.20;99.73;103533.09;5243592;28;20067;-70
2023/01/25 02:05:23;;;;;;;94.83;66.03;;;;;;;-0.27;99.35;103527.41;5243366;28;20037;-70
2023/01/25 02:07:56;;;;;;;85.50;61.97;;;;;;;-0.28;99.52;103529.06;5243669;28;20029;-70
2023/01/25 02:10:28;;;;;;;91.57;67.25;;;;;;;-0.29;99.74;103532.41;5242966;28;20108;-70
2023/01/25 02:13:00;;;;;;;86.80;64.60;;;;;;;-0.25;100.00;103533.53;5243153;28;20029;-71
2023/01/25 02:15:39;;;;;;;89.17;65.17;;;;;;;-0.24;100.00;103528.53;5241844;28;20052;-70
2023/01/25 02:18:11;;;;;;;89.28;65.88;;;;;;;-0.35;99.97;103531.03;5242569;28;20037;-70
2023/01/25 02:20:45;;;;;;;88.70;65.10;;;;;;;-0.32;99.78;103528.69;5243266;28;20453;-70
2023/01/25 02:24:00;;;;;;;92.22;67.18;;;;;;;-0.27;100.00;103532.53;5243203;28;20465;-70
2023/01/25 02:26:32;;;;;;;95.22;66.30;;;;;;;-0.27;100.00;103522.28;5240525;28;20128;-70
2023/01/25 02:29:06;;;;;;;97.05;68.28;;;;;;;-0.26;100.00;103513.78;5240703;28;20562;-70
2023/01/25 02:31:38;;;;;;;104.80;71.82;;;;;;;-0.30;99.85;103512.66;5241458;28;20053;-70
2023/01/25 02:34:09;;;;;;;92.30;67.33;;;;;;;-0.24;99.69;103515.69;5243361;28;20033;-70
2023/01/25 02:36:40;;;;;;;98.00;67.77;;;;;;;-0.27;99.65;103512.91;5242683;28;20025;-70
2023/01/25 02:39:16;;;;;;;95.47;67.83;;;;;;;-0.30;99.85;103506.66;5242389;28;20040;-70
2023/01/25 02:41:48;;;;;;;95.95;69.80;;;;;;;-0.27;99.88;103506.91;5243110;28;20075;-70
2023/01/25 02:44:27;;;;;;;95.50;68.07;;;;;;;-0.28;100.00;103499.97;5242888;28;20121;-70
2023/01/25 02:46:59;;;;;;;93.70;67.80;;;;;;;-0.24;100.00;103499.41;5242505;28;20036;-70
2023/01/25 02:49:34;;;;;;;96.80;68.53;;;;;;;-0.24;100.00;103494.28;5242300;28;20029;-70
2023/01/25 02:52:05;;;;;;;92.32;67.40;;;;;;;-0.33;100.00;103497.06;5242391;28;20061;-70
2023/01/25 02:54:37;;;;;;;94.53;69.63;;;;;;;-0.35;100.00;103492.56;5242018;28;20080;-70
2023/01/25 02:57:09;;;;;;;95.30;68.57;;;;;;;-0.34;100.00;103490.13;5242385;28;20065;-70
2023/01/25 02:59:40;;;;;;;99.13;70.30;;;;;;;-0.33;100.00;103493.59;5224720;28;20490;-70
2023/01/25 03:02:12;;;;;;;97.73;71.53;;;;;;;-0.39;100.00;103494.03;5242207;28;20469;-70
2023/01/25 03:04:44;;;;;;;98.05;69.43;;;;;;;-0.30;100.00;103498.97;5242167;28;20035;-70
2023/01/25 03:07:15;;;;;;;97.00;70.00;;;;;;;-0.27;100.00;103494.06;5242452;28;20116;-70
2023/01/25 03:09:47;;;;;;;100.23;68.93;;;;;;;-0.30;100.00;103501.53;5242075;28;20032;-70
2023/01/25 03:12:18;;;;;;;101.57;70.40;;;;;;;-0.27;100.00;103494.06;5242415;28;20045;-70
2023/01/25 03:14:49;;;;;;;96.37;68.80;;;;;;;-0.39;100.00;103492.38;5242309;28;20048;-70
2023/01/25 03:17:21;;;;;;;97.13;69.47;;;;;;;-0.35;100.00;103495.13;5242010;28;20084;-70
2023/01/25 03:19:52;;;;;;;98.03;68.73;;;;;;;-0.33;100.00;103484.25;5241721;28;20033;-70
2023/01/25 03:22:24;;;;;;;98.57;68.70;;;;;;;-0.33;100.00;103485.91;5241804;28;20095;-70
2023/01/25 03:24:56;;;;;;;96.10;68.63;;;;;;;-0.34;100.00;103481.56;5242111;28;20029;-70
2023/01/25 03:27:29;;;;;;;96.87;69.23;;;;;;;-0.30;100.00;103478.47;5241934;28;20033;-70
2023/01/25 03:30:00;;;;;;;99.95;70.88;;;;;;;-0.36;100.00;103476.31;5241686;28;20034;-70
2023/01/25 03:32:32;;;;;;;95.10;68.43;;;;;;;-0.35;100.00;103472.06;5242185;28;20037;-70
2023/01/25 03:35:04;;;;;;;97.70;68.60;;;;;;;-0.35;100.00;103466.94;5242146;28;20457;-70
2023/01/25 03:37:35;;;;;;;100.28;70.35;;;;;;;-0.37;100.00;103460.06;5242106;28;20026;-70
2023/01/25 03:40:08;;;;;;;96.50;69.13;;;;;;;-0.36;100.00;103455.81;5242173;28;20036;-71
2023/01/25 03:42:39;;;;;;;96.00;69.32;;;;;;;-0.39;100.00;103455.59;5241700;28;20432;-70
2023/01/25 03:45:13;;;;;;;99.80;68.67;;;;;;;-0.34;100.00;103455.94;5241799;28;20034;-70
2023/01/25 03:47:44;;;;;;;100.68;69.68;;;;;;;-0.39;100.00;103460.72;5240518;28;20084;-70
2023/01/25 03:50:15;;;;;;;96.73;68.97;;;;;;;-0.37;100.00;103454.94;5241680;28;20033;-70
2023/01/25 03:52:49;;;;;;;98.13;67.23;;;;;;;-0.42;100.00;103455.34;5241618;28;20033;-70
2023/01/25 03:55:20;;;;;;;96.18;67.18;;;;;;;-0.38;100.00;103455.69;5241345;28;20064;-70
2023/01/25 03:57:52;;;;;;;97.40;67.67;;;;;;;-0.42;99.50;103461.38;5241461;28;20061;-70
2023/01/25 04:00:23;;;;;;;95.20;65.80;;;;;;;-0.41;99.45;103463.16;5241952;28;20480;-70
2023/01/25 04:02:55;;;;;;;95.73;68.33;;;;;;;-0.41;100.00;103458.03;5241507;28;20025;-70
2023/01/25 04:05:26;;;;;;;100.17;69.77;;;;;;;-0.40;99.49;103462.38;5241640;28;20057;-70
2023/01/25 04:07:57;;;;;;;97.03;66.93;;;;;;;-0.37;99.36;103459.19;5241927;28;20033;-70
2023/01/25 04:10:29;;;;;;;99.07;67.97;;;;;;;-0.34;99.48;103458.50;5242048;28;20346;-69
2023/01/25 04:13:00;;;;;;;101.23;69.43;;;;;;;-0.43;99.66;103458.72;5241166;28;20095;-70
2023/01/25 04:15:31;;;;;;;103.60;69.97;;;;;;;-0.46;98.67;103456.78;5241405;28;20083;-69
2023/01/25 04:18:03;;;;;;;96.83;67.10;;;;;;;-0.50;98.77;103443.63;5241978;28;20044;-69
2023/01/25 04:20:35;;;;;;;98.73;66.77;;;;;;;-0.48;98.05;103453.22;5241873;28;20117;-70
2023/01/25 04:23:06;;;;;;;97.10;67.10;;;;;;;-0.53;97.67;103449.44;5241222;28;20033;-70
2023/01/25 04:25:38;;;;;;;96.20;65.53;;;;;;;-0.62;97.38;103447.06;5240971;28;20087;-70
2023/01/25 04:28:09;;;;;;;94.70;64.57;;;;;;;-0.62;97.69;103434.25;5241658;28;20034;-70
2023/01/25 04:30:40;;;;;;;93.80;67.03;;;;;;;-0.62;97.60;103443.59;5243117;28;20354;-70
2023/01/25 04:33:12;;;;;;;95.77;67.23;;;;;;;-0.68;97.15;103438.91;5245209;28;20033;-70
2023/01/25 04:35:44;;;;;;;100.77;64.53;;;;;;;-0.69;97.19;103441.34;5245564;28;20029;-70
2023/01/25 04:38:17;;;;;;;99.50;67.85;;;;;;;-0.76;96.98;103442.53;5244676;28;20104;-70
2023/01/25 04:40:49;;;;;;;93.93;63.83;;;;;;;-0.84;97.17;103436.84;5244320;28;20029;-70
2023/01/25 04:43:21;;;;;;;97.25;67.07;;;;;;;-0.85;98.38;103437.63;5244948;28;20034;-70
2023/01/25 04:45:53;;;;;;;98.05;67.15;;;;;;;-0.91;98.42;103432.03;5244905;28;20033;-71
2023/01/25 04:48:24;;;;;;;90.23;65.67;;;;;;;-1.00;98.03;103436.44;5245258;28;20033;-70
2023/01/25 04:50:55;;;;;;;96.20;64.50;;;;;;;-0.92;98.51;103432.78;5245499;28;20033;-70
2023/01/25 04:53:27;;;;;;;93.73;64.67;;;;;;;-1.03;98.59;103433.63;5245417;28;20056;-71
2023/01/25 04:55:58;;;;;;;90.17;62.93;;;;;;;-0.99;98.54;103421.19;5244443;28;20033;-70
2023/01/25 04:58:29;;;;;;;95.70;65.00;;;;;;;-0.98;98.76;103422.09;5244990;28;20381;-70
2023/01/25 05:01:02;;;;;;;95.03;64.00;;;;;;;-0.98;98.55;103430.66;5244704;28;20076;-70
2023/01/25 05:03:33;;;;;;;94.30;64.60;;;;;;;-1.02;98.34;103422.63;5244546;28;20034;-70
2023/01/25 05:06:05;;;;;;;89.47;64.63;;;;;;;-1.10;98.66;103417.78;5245102;28;20044;-70
2023/01/25 05:08:36;;;;;;;93.47;66.07;;;;;;;-1.19;98.73;103408.50;5243867;28;20033;-70
2023/01/25 05:11:08;;;;;;;93.30;64.33;;;;;;;-1.18;99.12;103408.63;5244778;28;20033;-70
2023/01/25 05:13:39;;;;;;;93.03;64.50;;;;;;;-1.12;98.96;103416.78;5244709;28;20040;-70
2023/01/25 05:16:10;;;;;;;97.30;66.67;;;;;;;-1.06;99.05;103407.78;5244658;28;20496;-70
2023/01/25 05:18:42;;;;;;;91.00;63.77;;;;;;;-1.08;99.50;103406.78;5244652;28;20048;-71
2023/01/25 05:24:03;;;;;;;96.97;67.15;;;;;;;-1.00;99.38;103410.84;5244578;28;20037;-70
2023/01/25 05:29:30;;;;;;;93.75;64.95;;;;;;;-1.00;99.78;103404.06;5244461;28;20037;-70
2023/01/25 05:32:04;;;;;;;95.50;64.28;;;;;;;-0.97;99.80;103400.81;5243902;28;20401;-70
2023/01/25 05:34:36;;;;;;;92.50;63.35;;;;;;;-0.90;100.00;103399.63;5244218;28;20033;-70
2023/01/25 05:37:09;;;;;;;88.75;63.85;;;;;;;-0.86;100.00;103404.22;5243998;28;20033;-70
2023/01/25 05:39:40;;;;;;;91.57;63.20;;;;;;;-0.93;100.00;103398.63;5243918;28;20040;-70
2023/01/25 05:42:17;;;;;;;90.63;62.93;;;;;;;-0.85;99.92;103400.84;5242999;28;20049;-70
2023/01/25 05:44:49;;;;;;;93.55;64.40;;;;;;;-0.82;100.00;103398.53;5244048;28;20042;-70
2023/01/25 05:47:20;;;;;;;87.38;61.22;;;;;;;-0.82;99.25;103398.53;5243785;28;20036;-69
2023/01/25 05:49:52;;;;;;;90.23;63.43;;;;;;;-0.90;98.90;103399.63;5244168;28;20037;-70
2023/01/25 05:52:23;;;;;;;91.67;63.87;;;;;;;-0.92;98.35;103399.50;5243611;28;20033;-70
2023/01/25 05:54:54;;;;;;;85.20;60.63;;;;;;;-0.85;99.22;103399.22;5243685;28;20040;-70
2023/01/25 05:57:27;;;;;;;88.87;63.60;;;;;;;-0.93;99.08;103403.75;5243206;28;20026;-70
2023/01/25 05:59:58;;;;;;;;;;;;;;;-0.79;99.12;103403.88;5244085;28;20037;-69
2023/01/25 06:02:31;;;;;;;84.05;58.90;;;;;;;-0.87;98.94;103395.66;5243294;28;19966;-70
2023/01/25 06:05:03;;;;;;;85.00;57.42;;;;;;;-0.89;98.34;103397.19;5243258;28;20425;-70
2023/01/25 06:07:35;;;;;;;82.15;59.10;;;;;;;-0.90;98.54;103392.84;5243415;28;20432;-69
2023/01/25 06:10:07;;;;;;;83.70;57.03;;;;;;;-0.92;98.08;103402.06;5243455;28;20058;-70
2023/01/25 06:12:39;;;;;;;83.72;59.92;;;;;;;-0.92;97.85;103399.50;5242962;28;20033;-69
2023/01/25 06:15:10;;;;;;;82.83;58.77;;;;;;;-0.97;97.90;103401.72;5241801;28;20483;-69
2023/01/25 06:17:42;;;;;;;84.17;58.30;;;;;;;-0.98;97.75;103397.38;5243299;28;20113;-69
2023/01/25 06:20:13;;;;;;;83.50;58.40;;;;;;;-1.00;98.09;103403.16;5242934;28;20041;-69
2023/01/25 06:22:49;;;;;;;80.93;58.57;;;;;;;-1.08;97.98;103397.44;5243056;28;20029;-70
2023/01/25 06:25:20;;;;;;;82.57;59.00;;;;;;;-1.08;97.76;103401.66;5243048;28;20045;-69
2023/01/25 06:27:54;;;;;;;89.20;61.30;;;;;;;-1.10;97.75;103405.00;5242850;28;20072;-69
2023/01/25 06:30:25;;;;;;;87.07;60.00;;;;;;;-1.15;97.96;103401.19;5243217;28;20393;-70
2023/01/25 06:32:57;;;;;;;82.83;58.77;;;;;;;-1.16;97.92;103396.88;5242628;28;20053;-70
2023/01/25 06:35:31;;;;;;;82.95;57.63;;;;;;;-1.23;98.18;103393.72;5242603;28;20038;-69
2023/01/25 06:38:02;;;;;;;83.88;57.80;;;;;;;-1.18;98.40;103392.41;5243358;28;20044;-69
2023/01/25 06:40:34;;;;;;;85.33;59.43;;;;;;;-1.21;98.41;103392.16;5242598;28;20108;-69
2023/01/25 06:43:10;;;;;;;87.37;60.33;;;;;;;-1.23;98.70;103392.03;5242656;28;20029;-69
2023/01/25 06:45:41;;;;;;;86.72;59.10;;;;;;;-1.22;98.90;103395.47;5242418;28;20079;-70
2023/01/25 06:48:13;;;;;;;87.33;59.60;;;;;;;-1.33;98.22;103390.44;5242421;28;20144;-69
2023/01/25 06:50:44;;;;;;;87.10;58.53;;;;;;;-1.33;98.86;103389.53;5242352;28;20021;-69
2023/01/25 06:53:16;;;;;;;84.90;60.23;;;;;;;-1.31;99.13;103391.44;5242288;28;20099;-70
2023/01/25 06:55:47;;;;;;;82.23;57.30;;;;;;;-1.29;98.90;103391.56;5242159;28;20095;-70
2023/01/25 06:58:18;;;;;;;85.67;58.30;;;;;;;-1.25;99.26;103392.72;5242884;28;20092;-69
2023/01/25 07:00:50;;;;;;;84.27;59.40;;;;;;;-1.20;99.11;103391.41;5242594;28;20124;-69
2023/01/25 07:03:21;;;;;;;84.50;58.87;;;;;;;-1.23;98.68;103386.03;5242173;28;20500;-69
2023/01/25 07:06:00;;;;;;;79.03;55.77;;;;;;;-1.18;99.08;103384.72;5242238;28;20033;-69
2023/01/25 07:08:33;;;;;;;82.07;56.97;;;;;;;-1.19;99.27;103382.91;5243010;28;20039;-70
2023/01/25 07:11:08;;;;;;;84.10;58.22;;;;;;;-1.24;98.64;103391.91;5242696;28;20037;-69
2023/01/25 07:13:41;;;;;;;82.22;56.22;;;;;;;-1.32;98.75;103382.00;5241980;28;20112;-69
2023/01/25 07:16:16;;;;;;;85.43;59.60;;;;;;;-1.33;98.77;103387.00;5242046;28;20021;-70
2023/01/25 07:18:47;;;;;;;83.80;58.20;;;;;;;-1.34;98.70;103395.44;5241998;28;20029;-69
2023/01/25 07:21:22;;;;;;;81.47;57.13;;;;;;;-1.39;98.78;103396.75;5241893;28;20034;-70
2023/01/25 07:24:00;;;;;;;84.45;58.00;;;;;;;-1.32;99.12;103392.22;5241884;28;20025;-71
2023/01/25 07:26:31;;;;;;;86.35;58.05;;;;;;;-1.36;99.04;103389.31;5241825;28;20033;-69
2023/01/25 07:29:03;;;;;;;87.90;59.27;;;;;;;-1.36;99.53;103395.31;5242248;28;20036;-69
2023/01/25 07:31:34;;;;;;;89.50;62.20;;;;;;;-1.39;99.63;103386.50;5241821;28;20046;-69
2023/01/25 07:34:07;;;;;;;88.33;57.80;;;;;;;-1.41;99.82;103378.72;5241801;28;20116;-69
2023/01/25 07:36:39;;;;;;;84.47;58.65;;;;;;;-1.44;100.00;103378.47;5242047;28;20059;-69
2023/01/25 07:39:11;;;;;;;85.93;59.72;;;;;;;-1.44;100.00;103378.47;5241771;28;20034;-69
2023/01/25 07:41:42;;;;;;;84.97;59.43;;;;;;;-1.50;100.00;103381.47;5241714;28;20491;-69
2023/01/25 07:44:14;;;;;;;86.53;60.37;;;;;;;-1.54;100.00;103381.97;5241755;28;20076;-69
2023/01/25 07:46:46;;;;;;;86.87;58.23;;;;;;;-1.45;100.00;103380.91;5241668;28;20037;-69
2023/01/25 07:49:17;;;;;;;93.50;62.70;;;;;;;-1.43;100.00;103369.13;5241581;28;20153;-69
2023/01/25 07:51:49;;;;;;;84.07;58.47;;;;;;;-1.40;100.00;103366.78;5241504;28;20034;-69
2023/01/25 07:54:20;;;;;;;82.23;56.47;;;;;;;-1.37;100.00;103373.06;5241591;28;20029;-69
2023/01/25 07:56:51;;;;;;;83.07;56.73;;;;;;;-1.29;100.00;103369.44;5240959;28;20573;-68
2023/01/25 07:59:23;;;;;;;86.13;58.57;;;;;;;-1.33;100.00;103374.19;5241003;28;20021;-68
2023/01/25 08:01:55;;;;;;;84.85;57.85;;;;;;;-1.29;100.00;103376.19;5241282;28;20061;-68
2023/01/25 08:04:26;;;;;;;84.90;59.53;;;;;;;-1.21;99.92;103377.69;5241225;28;20073;-68
2023/01/25 08:06:57;;;;;;;82.20;55.10;;;;;;;-1.19;100.00;103380.34;5245411;28;20045;-68
2023/01/25 08:09:29;;;;;;;82.37;56.43;;;;;;;-1.27;99.95;103372.13;5245366;28;20029;-68
2023/01/25 08:12:00;;;;;;;80.43;54.57;;;;;;;-1.27;99.66;103374.69;5245768;28;20040;-68
2023/01/25 08:14:32;;;;;;;82.30;55.37;;;;;;;-1.33;99.31;103364.84;5245206;28;20037;-68
2023/01/25 08:17:03;;;;;;;87.03;58.13;;;;;;;-1.35;99.53;103370.63;5245217;28;20485;-68
2023/01/25 08:19:35;;;;;;;85.03;56.33;;;;;;;-1.36;100.00;103363.72;5245834;28;20048;-68
2023/01/25 08:22:07;;;;;;;82.63;57.00;;;;;;;-1.26;100.00;103368.75;5245766;28;20029;-69
2023/01/25 08:24:38;;;;;;;86.03;57.65;;;;;;;-1.40;100.00;103370.28;5245805;28;20393;-68
2023/01/25 08:27:10;;;;;;;84.93;57.80;;;;;;;-1.35;100.00;103365.50;5244959;28;20038;-68
2023/01/25 08:29:41;;;;;;;93.10;60.43;;;;;;;-1.43;99.79;103366.56;5245212;28;20068;-68
2023/01/25 08:32:13;;;;;;;91.10;60.00;;;;;;;-1.42;100.00;103358.13;5244410;28;20072;-69
2023/01/25 08:34:44;;;;;;;87.03;58.93;;;;;;;-1.41;100.00;103354.81;5245173;28;20079;-68
2023/01/25 08:37:15;;;;;;;94.73;60.70;;;;;;;-1.37;100.00;103350.03;5243791;28;20044;-68
2023/01/25 08:39:47;;;;;;;88.50;60.23;;;;;;;-1.32;100.00;103358.97;5244759;28;20056;-68
2023/01/25 08:42:18;;;;;;;80.83;57.30;;;;;;;-1.33;100.00;103356.28;5244549;28;20365;-68
2023/01/25 08:44:49;;;;;;;86.40;57.83;;;;;;;-1.38;100.00;103355.03;5244667;28;20034;-68
2023/01/25 08:47:21;;;;;;;84.60;60.83;;;;;;;-1.45;100.00;103358.75;5244594;28;20025;-68
2023/01/25 08:49:54;;;;;;;83.87;56.73;;;;;;;-1.51;99.95;103355.75;5244515;28;20106;-68
2023/01/25 08:52:25;;;;;;;86.00;58.67;;;;;;;-1.40;100.00;103359.13;5244408;28;20048;-68
2023/01/25 08:54:57;;;;;;;84.37;57.53;;;;;;;-1.48;100.00;103358.56;5244513;28;20026;-68
2023/01/25 08:57:29;;;;;;;84.87;57.83;;;;;;;-1.44;100.00;103355.44;5244276;28;20044;-69
2023/01/25 09:00:01;;;;;;;84.57;57.17;;;;;;;-1.37;100.00;103354.25;5244997;28;20037;-68
2023/01/25 09:02:33;;;;;;;84.83;57.47;;;;;;;-1.39;100.00;103355.81;5244226;28;20034;-68
2023/01/25 09:05:04;;;;;;;86.60;58.73;;;;;;;-1.40;99.75;103344.69;5244555;28;20727;-68
2023/01/25 09:07:37;;;;;;;90.67;59.63;;;;;;;-1.30;99.61;103351.41;5243889;28;20036;-68
2023/01/25 09:10:09;;;;;;;83.85;56.35;;;;;;;-1.21;99.59;103339.28;5244136;28;20057;-68
2023/01/25 09:12:40;;;;;;;84.87;56.73;;;;;;;-1.13;99.73;103345.00;5244232;28;20112;-68
2023/01/25 09:15:11;;;;;;;88.77;59.10;;;;;;;-1.09;99.08;103339.34;5244476;28;20046;-68
2023/01/25 09:17:43;;;;;;;87.57;58.63;;;;;;;-1.18;98.58;103342.09;5242937;28;20030;-68
2023/01/25 09:20:14;;;;;;;79.27;54.80;;;;;;;-1.12;98.81;103340.00;5244083;28;20083;-68
2023/01/25 09:22:46;;;;;;;84.97;56.30;;;;;;;-1.18;98.40;103334.41;5243504;28;20064;-68
2023/01/25 09:25:18;;;;;;;82.07;56.27;;;;;;;-1.17;98.83;103331.09;5243831;28;20040;-69
2023/01/25 09:27:50;;;;;;;85.13;57.60;;;;;;;-1.25;98.21;103336.41;5243609;28;20833;-68
2023/01/25 09:30:21;;;;;;;85.13;56.75;;;;;;;-1.26;98.68;103332.94;5242336;28;20036;-68
2023/01/25 09:32:52;;;;;;;89.63;58.80;;;;;;;-1.19;98.96;103327.53;5244036;28;20033;-69
2023/01/25 09:35:28;;;;;;;86.97;57.57;;;;;;;-1.12;98.97;103326.31;5243989;28;20037;-68
2023/01/25 09:37:59;;;;;;;90.38;59.75;;;;;;;-1.07;98.66;103334.34;5243713;28;20477;-68
2023/01/25 09:40:38;;;;;;;85.87;56.10;;;;;;;-0.96;98.02;103330.94;5243641;28;20075;-68
2023/01/25 09:43:29;;;;;;;86.05;57.85;;;;;;;-0.93;98.13;103326.94;5243604;28;20021;-68
2023/01/25 09:46:09;;;;;;;84.00;57.92;;;;;;;-0.90;97.87;103326.28;5243879;28;20342;-68
2023/01/25 09:48:57;;;;;;;86.80;56.53;;;;;;;-0.83;97.89;103328.50;5243888;28;20044;-68
2023/01/25 09:51:48;;;;;;;88.55;60.30;;;;;;;-0.98;96.94;103323.13;5243106;28;20063;-69
2023/01/25 09:54:21;;;;;;;82.63;57.58;;;;;;;-0.99;97.24;103323.03;5243448;28;20037;-68
2023/01/25 09:56:52;;;;;;;87.65;59.33;;;;;;;-1.04;97.44;103330.34;5242867;28;20108;-69
2023/01/25 09:59:29;;;;;;;92.70;62.07;;;;;;;-1.10;97.16;103324.75;5241972;28;20434;-69
2023/01/25 10:02:24;;;;;;;90.55;60.15;;;;;;;-1.10;97.48;103325.63;5243082;28;20072;-68
2023/01/25 10:05:04;;;;;;;88.15;60.65;;;;;;;-1.14;97.48;103326.19;5242083;28;20056;-68
2023/01/25 10:07:54;;;;;;;93.60;62.70;;;;;;;-1.24;98.15;103326.28;5243313;28;20032;-68
2023/01/25 10:10:37;;;;;;;89.20;58.30;;;;;;;-1.13;98.77;103337.31;5243006;28;20028;-69
2023/01/25 10:13:14;;;;;;;97.35;61.53;;;;;;;-1.15;98.77;103316.72;5243598;28;20362;-69
2023/01/25 10:15:56;;;;;;;95.22;61.83;;;;;;;-1.03;98.82;103315.88;5243276;28;20037;-68
2023/01/25 10:18:52;;;;;;;88.65;58.78;;;;;;;-0.93;98.34;103305.56;5242621;28;20029;-68
2023/01/25 10:21:52;;;;;;;90.00;59.25;;;;;;;-0.81;97.89;103300.44;5243187;28;20037;-68
2023/01/25 10:24:43;;;;;;;93.80;59.17;;;;;;;-0.73;98.15;103302.78;5243400;28;20021;-68
2023/01/25 10:27:48;;;;;;;97.55;61.55;;;;;;;-0.77;97.03;103312.72;5242802;28;20033;-69
2023/01/25 10:30:31;;;;;;;97.05;63.10;;;;;;;-0.86;96.20;103302.66;5242600;28;20037;-68
2023/01/25 10:33:14;;;;;;;96.43;65.97;;;;;;;-1.01;96.50;103296.41;5242691;28;20037;-68
2023/01/25 10:35:48;;;;;;;95.22;63.42;;;;;;;-1.22;97.36;103303.34;5242619;28;20025;-69
2023/01/25 10:38:38;;;;;;;97.45;63.95;;;;;;;-1.24;97.84;103281.88;5242467;28;20054;-68
2023/01/25 10:41:21;;;;;;;94.53;60.25;;;;;;;-1.27;98.48;103287.66;5243110;28;20025;-69
2023/01/25 10:46:49;;;;;;;96.38;59.97;;;;;;;-1.33;97.76;103276.97;5242803;28;20496;-68
2023/01/25 10:49:33;;;;;;;93.90;61.47;;;;;;;-1.23;98.73;103258.94;5242009;28;20105;-69
2023/01/25 10:52:18;;;;;;;94.50;61.67;;;;;;;-1.09;98.51;103252.31;5242527;28;20056;-68
2023/01/25 10:55:05;;;;;;;95.00;61.17;;;;;;;-0.94;98.42;103245.75;5242447;28;20037;-69
2023/01/25 10:57:41;;;;;;;92.22;59.67;;;;;;;-0.95;97.96;103241.44;5242064;28;20029;-68
2023/01/25 11:00:18;;;;;;;89.78;59.40;;;;;;;-0.91;97.45;103237.44;5242026;28;20041;-68
2023/01/25 11:02:50;;;;;;;93.38;58.83;;;;;;;-0.89;97.26;103234.97;5241767;28;20025;-68
2023/01/25 11:05:25;;;;;;;86.17;59.73;;;;;;;-0.92;96.73;103238.19;5242173;28;20107;-68
2023/01/25 11:07:58;;;;;;;91.63;61.78;;;;;;;-1.19;96.96;103225.16;5242088;28;20037;-69
2023/01/25 11:10:36;;;;;;;91.95;60.47;;;;;;;-1.15;97.94;103221.13;5241691;28;20041;-69
2023/01/25 11:13:14;;;;;;;94.03;60.17;;;;;;;-1.11;97.88;103211.25;5241763;28;20061;-69
2023/01/25 11:15:58;;;;;;;94.47;60.28;;;;;;;-1.12;98.30;103206.00;5242116;28;20457;-68
2023/01/25 11:18:33;;;;;;;92.30;59.00;;;;;;;-1.14;98.00;103202.47;5241809;28;20041;-68
2023/01/25 11:21:18;;;;;;;87.22;59.30;;;;;;;-1.25;97.16;103200.78;5241826;28;20030;-69
2023/01/25 11:24:00;;;;;;;90.07;60.47;;;;;;;-1.22;98.03;103190.72;5241848;28;20068;-69
2023/01/25 11:26:35;;;;;;;89.93;57.17;;;;;;;-1.15;97.42;103190.44;5241729;28;20172;-68
2023/01/25 11:29:20;;;;;;;90.28;58.40;;;;;;;-1.04;97.52;103178.44;5242239;28;20025;-69
2023/01/25 11:31:54;;;;;;;90.95;55.85;;;;;;;-0.97;97.27;103180.63;5241784;28;20053;-69
2023/01/25 11:34:27;;;;;;;88.88;58.90;;;;;;;-0.86;97.10;103164.38;5241657;28;20034;-68
2023/01/25 11:37:22;;;;;;;89.32;57.42;;;;;;;-0.86;96.28;103168.63;5241642;28;20057;-69
2023/01/25 11:40:15;;;;;;;86.97;56.80;;;;;;;-0.74;96.27;103161.84;5240710;28;20496;-68
2023/01/25 11:43:00;;;;;;;91.20;59.83;;;;;;;-0.92;95.28;103146.94;5241867;28;20029;-68
2023/01/25 11:45:44;;;;;;;89.38;55.92;;;;;;;-1.05;95.54;103144.22;5241636;28;20477;-69
2023/01/25 11:48:45;;;;;;;88.18;58.42;;;;;;;-1.01;96.43;103138.56;5241900;28;20029;-68